sensor_id;sensor_type;location;lat;lon;timestamp;pressure;altitude;pressure_sealevel;temperature;humidity
76397;BME280;66045;51.622;5.526;2023-02-01T00:02:01;102067.84;;;15.59;50.99
76397;BME280;66045;51.622;5.526;2023-02-01T00:04:27;102064.31;;;15.58;50.93
76397;BME280;66045;51.622;5.526;2023-02-01T00:06:52;102063.44;;;15.58;50.93
76397;BME280;66045;51.622;5.526;2023-02-01T00:09:18;102065.19;;;15.57;50.79
76397;BME280;66045;51.622;5.526;2023-02-01T00:11:43;102059.88;;;15.56;50.97
76397;BME280;66045;51.622;5.526;2023-02-01T00:14:09;102049.25;;;15.54;50.90
76397;BME280;66045;51.622;5.526;2023-02-01T00:16:34;102044.81;;;15.53;50.80
76397;BME280;66045;51.622;5.526;2023-02-01T00:19:03;102027.13;;;15.54;50.83
76397;BME280;66045;51.622;5.526;2023-02-01T00:21:30;102017.41;;;15.53;50.77
76397;BME280;66045;51.622;5.526;2023-02-01T00:23:56;102016.53;;;15.52;50.95
76397;BME280;66045;51.622;5.526;2023-02-01T00:28:56;102022.69;;;15.51;50.73
76397;BME280;66045;51.622;5.526;2023-02-01T00:31:21;102005.91;;;15.51;50.63
76397;BME280;66045;51.622;5.526;2023-02-01T00:33:47;102027.13;;;15.51;50.72
76397;BME280;66045;51.622;5.526;2023-02-01T00:36:13;102035.97;;;15.50;50.73
76397;BME280;66045;51.622;5.526;2023-02-01T00:38:39;102034.19;;;15.49;50.65
76397;BME280;66045;51.622;5.526;2023-02-01T00:41:07;102034.19;;;15.49;50.67
76397;BME280;66045;51.622;5.526;2023-02-01T00:43:34;102037.75;;;15.46;50.69
76397;BME280;66045;51.622;5.526;2023-02-01T00:46:00;102035.09;;;15.46;50.61
76397;BME280;66045;51.622;5.526;2023-02-01T00:48:25;102031.53;;;15.45;50.58
76397;BME280;66045;51.622;5.526;2023-02-01T00:50:51;102020.94;;;15.44;50.62
76397;BME280;66045;51.622;5.526;2023-02-01T00:53:16;102024.47;;;15.44;50.52
76397;BME280;66045;51.622;5.526;2023-02-01T00:55:46;102034.19;;;15.42;50.50
76397;BME280;66045;51.622;5.526;2023-02-01T00:58:12;102033.31;;;15.43;50.45
76397;BME280;66045;51.622;5.526;2023-02-01T01:00:37;102035.06;;;15.41;50.56
76397;BME280;66045;51.622;5.526;2023-02-01T01:03:03;102034.19;;;15.41;50.50
76397;BME280;66045;51.622;5.526;2023-02-01T01:05:45;102036.84;;;15.41;50.51
76397;BME280;66045;51.622;5.526;2023-02-01T01:08:11;102041.28;;;15.40;50.47
76397;BME280;66045;51.622;5.526;2023-02-01T01:10:37;102034.19;;;15.39;50.25
76397;BME280;66045;51.622;5.526;2023-02-01T01:13:03;102027.13;;;15.38;50.35
76397;BME280;66045;51.622;5.526;2023-02-01T01:15:28;102034.19;;;15.38;50.41
76397;BME280;66045;51.622;5.526;2023-02-01T01:17:53;102033.28;;;15.37;50.32
76397;BME280;66045;51.622;5.526;2023-02-01T01:20:19;102022.69;;;15.36;50.40
76397;BME280;66045;51.622;5.526;2023-02-01T01:22:46;102021.78;;;15.37;50.42
76397;BME280;66045;51.622;5.526;2023-02-01T01:25:12;102014.69;;;15.34;50.30
76397;BME280;66045;51.622;5.526;2023-02-01T01:27:37;102024.44;;;15.35;50.18
76397;BME280;66045;51.622;5.526;2023-02-01T01:30:03;102020.00;;;15.34;50.22
76397;BME280;66045;51.622;5.526;2023-02-01T01:32:28;102031.53;;;15.35;50.03
76397;BME280;66045;51.622;5.526;2023-02-01T01:34:54;102024.44;;;15.34;50.29
76397;BME280;66045;51.622;5.526;2023-02-01T01:37:19;102026.22;;;15.33;50.23
76397;BME280;66045;51.622;5.526;2023-02-01T01:39:44;102022.69;;;15.33;50.19
76397;BME280;66045;51.622;5.526;2023-02-01T01:42:11;102030.63;;;15.31;50.14
76397;BME280;66045;51.622;5.526;2023-02-01T01:47:23;102023.53;;;15.32;50.07
76397;BME280;66045;51.622;5.526;2023-02-01T01:49:49;102015.59;;;15.27;50.17
76397;BME280;66045;51.622;5.526;2023-02-01T01:52:15;102021.78;;;15.29;50.13
76397;BME280;66045;51.622;5.526;2023-02-01T01:54:43;102030.63;;;15.30;50.11
76397;BME280;66045;51.622;5.526;2023-02-01T01:57:26;102029.75;;;15.29;50.12
76397;BME280;66045;51.622;5.526;2023-02-01T02:00:04;102023.53;;;15.27;50.00
76397;BME280;66045;51.622;5.526;2023-02-01T02:02:32;102020.00;;;15.28;49.99
76397;BME280;66045;51.622;5.526;2023-02-01T02:04:57;102017.34;;;15.27;50.15
76397;BME280;66045;51.622;5.526;2023-02-01T02:07:26;102019.09;;;15.26;50.16
76397;BME280;66045;51.622;5.526;2023-02-01T02:09:53;102019.09;;;15.26;49.88
76397;BME280;66045;51.622;5.526;2023-02-01T02:12:19;102014.69;;;15.24;50.03
76397;BME280;66045;51.622;5.526;2023-02-01T02:14:44;102017.34;;;15.22;50.18
76397;BME280;66045;51.622;5.526;2023-02-01T02:38:52;101980.19;;;15.19;50.18
76397;BME280;66045;51.622;5.526;2023-02-01T02:41:27;101977.53;;;15.17;50.12
76397;BME280;66045;51.622;5.526;2023-02-01T02:44:33;101981.94;;;15.17;50.02
76397;BME280;66045;51.622;5.526;2023-02-01T02:50:23;101989.03;;;15.16;49.89
76397;BME280;66045;51.622;5.526;2023-02-01T02:53:16;101985.47;;;15.14;49.90
76397;BME280;66045;51.622;5.526;2023-02-01T02:56:03;101984.59;;;15.14;49.83
76397;BME280;66045;51.622;5.526;2023-02-01T02:58:49;101979.28;;;15.14;49.97
76397;BME280;66045;51.622;5.526;2023-02-01T03:01:34;101968.66;;;15.12;49.88
76397;BME280;66045;51.622;5.526;2023-02-01T03:04:18;101966.00;;;15.12;49.95
76397;BME280;66045;51.622;5.526;2023-02-01T03:06:45;101959.84;;;15.12;49.65
76397;BME280;66045;51.622;5.526;2023-02-01T03:09:34;101960.72;;;15.12;49.72
76397;BME280;66045;51.622;5.526;2023-02-01T03:12:07;101958.06;;;15.11;49.82
76397;BME280;66045;51.622;5.526;2023-02-01T03:14:57;101957.19;;;15.10;49.87
76397;BME280;66045;51.622;5.526;2023-02-01T03:17:32;101958.06;;;15.09;49.86
76397;BME280;66045;51.622;5.526;2023-02-01T03:20:01;101965.16;;;15.07;49.74
76397;BME280;66045;51.622;5.526;2023-02-01T03:22:28;101964.22;;;15.07;49.93
76397;BME280;66045;51.622;5.526;2023-02-01T03:25:12;101951.00;;;15.05;50.00
76397;BME280;66045;51.622;5.526;2023-02-01T03:27:53;101955.41;;;15.08;49.85
76397;BME280;66045;51.622;5.526;2023-02-01T03:30:28;101948.34;;;15.05;49.87
76397;BME280;66045;51.622;5.526;2023-02-01T03:32:57;101951.88;;;15.04;49.79
76397;BME280;66045;51.622;5.526;2023-02-01T03:35:47;101956.28;;;15.04;49.76
76397;BME280;66045;51.622;5.526;2023-02-01T03:38:33;101950.97;;;15.07;49.75
76397;BME280;66045;51.622;5.526;2023-02-01T03:44:01;101951.88;;;15.04;49.79
76397;BME280;66045;51.622;5.526;2023-02-01T03:46:33;101943.91;;;15.03;49.86
76397;BME280;66045;51.622;5.526;2023-02-01T03:49:04;101937.72;;;15.02;49.78
76397;BME280;66045;51.622;5.526;2023-02-01T03:51:31;101931.53;;;15.02;49.66
76397;BME280;66045;51.622;5.526;2023-02-01T03:53:59;101945.66;;;15.00;49.73
76397;BME280;66045;51.622;5.526;2023-02-01T03:56:28;101949.19;;;15.01;49.86
76397;BME280;66045;51.622;5.526;2023-02-01T03:58:55;101950.97;;;15.00;49.86
76397;BME280;66045;51.622;5.526;2023-02-01T04:01:28;101957.16;;;14.99;49.72
76397;BME280;66045;51.622;5.526;2023-02-01T04:03:54;101943.91;;;15.06;49.68
76397;BME280;66045;51.622;5.526;2023-02-01T04:06:20;101946.53;;;15.01;49.64
76397;BME280;66045;51.622;5.526;2023-02-01T04:08:45;101946.53;;;14.98;49.79
76397;BME280;66045;51.622;5.526;2023-02-01T04:11:11;101949.19;;;14.99;49.74
76397;BME280;66045;51.622;5.526;2023-02-01T04:13:37;101941.22;;;14.98;49.79
76397;BME280;66045;51.622;5.526;2023-02-01T04:16:02;101941.25;;;14.96;49.73
76397;BME280;66045;51.622;5.526;2023-02-01T04:18:27;101942.13;;;14.97;49.68
76397;BME280;66045;51.622;5.526;2023-02-01T04:20:53;101936.81;;;14.95;49.68
76397;BME280;66045;51.622;5.526;2023-02-01T04:23:18;101943.91;;;14.96;49.58
76397;BME280;66045;51.622;5.526;2023-02-01T04:25:44;101948.28;;;14.94;49.63
76397;BME280;66045;51.622;5.526;2023-02-01T04:28:09;101951.81;;;14.95;49.63
76397;BME280;66045;51.622;5.526;2023-02-01T04:30:34;101950.06;;;14.94;49.54
76397;BME280;66045;51.622;5.526;2023-02-01T04:33:00;101942.13;;;14.91;49.56
76397;BME280;66045;51.622;5.526;2023-02-01T04:35:25;101943.88;;;14.90;49.70
76397;BME280;66045;51.622;5.526;2023-02-01T04:37:51;101947.41;;;14.91;49.59
76397;BME280;66045;51.622;5.526;2023-02-01T04:40:16;101937.66;;;14.90;49.59
76397;BME280;66045;51.622;5.526;2023-02-01T04:42:41;101942.09;;;14.89;49.65
76397;BME280;66045;51.622;5.526;2023-02-01T04:45:07;101937.66;;;14.90;49.57
76397;BME280;66045;51.622;5.526;2023-02-01T04:47:34;101949.16;;;14.89;49.59
76397;BME280;66045;51.622;5.526;2023-02-01T04:49:59;101956.22;;;14.88;49.70
76397;BME280;66045;51.622;5.526;2023-02-01T04:52:24;101964.19;;;14.88;49.80
76397;BME280;66045;51.622;5.526;2023-02-01T04:54:50;101967.72;;;14.87;49.65
76397;BME280;66045;51.622;5.526;2023-02-01T04:57:15;101967.72;;;14.87;49.51
76397;BME280;66045;51.622;5.526;2023-02-01T04:59:40;101958.88;;;14.85;49.63
76397;BME280;66045;51.622;5.526;2023-02-01T05:02:06;101970.38;;;14.87;49.66
76397;BME280;66045;51.622;5.526;2023-02-01T05:04:31;101956.22;;;14.87;49.58
76397;BME280;66045;51.622;5.526;2023-02-01T05:06:57;101960.63;;;14.86;49.58
76397;BME280;66045;51.622;5.526;2023-02-01T05:09:22;101957.09;;;14.86;49.58
76397;BME280;66045;51.622;5.526;2023-02-01T05:11:47;101953.56;;;14.84;49.81
76397;BME280;66045;51.622;5.526;2023-02-01T05:14:31;101951.81;;;14.86;49.56
76397;BME280;66045;51.622;5.526;2023-02-01T05:16:56;101951.81;;;14.86;49.53
76397;BME280;66045;51.622;5.526;2023-02-01T05:19:22;101949.16;;;14.83;49.52
76397;BME280;66045;51.622;5.526;2023-02-01T05:21:47;101953.56;;;14.84;49.55
76397;BME280;66045;51.622;5.526;2023-02-01T05:24:12;101948.28;;;14.82;49.63
76397;BME280;66045;51.622;5.526;2023-02-01T05:26:40;101942.97;;;14.82;49.59
76397;BME280;66045;51.622;5.526;2023-02-01T05:29:06;101938.53;;;14.83;49.65
76397;BME280;66045;51.622;5.526;2023-02-01T05:31:32;101941.16;;;14.81;49.55
76397;BME280;66045;51.622;5.526;2023-02-01T05:33:57;101938.53;;;14.81;49.56
76397;BME280;66045;51.622;5.526;2023-02-01T05:36:23;101936.78;;;14.82;49.63
76397;BME280;66045;51.622;5.526;2023-02-01T05:38:48;101936.78;;;14.82;49.64
76397;BME280;66045;51.622;5.526;2023-02-01T05:41:13;101937.66;;;14.81;49.50
76397;BME280;66045;51.622;5.526;2023-02-01T05:43:39;101934.09;;;14.77;49.42
76397;BME280;66045;51.622;5.526;2023-02-01T05:46:04;101945.59;;;14.79;49.49
76397;BME280;66045;51.622;5.526;2023-02-01T05:48:29;101939.41;;;14.78;49.53
76397;BME280;66045;51.622;5.526;2023-02-01T05:50:55;101944.69;;;14.78;49.54
76397;BME280;66045;51.622;5.526;2023-02-01T05:53:20;101939.41;;;14.77;49.58
76397;BME280;66045;51.622;5.526;2023-02-01T05:55:46;101954.44;;;14.76;49.48
76397;BME280;66045;51.622;5.526;2023-02-01T05:58:11;101953.56;;;14.76;49.60
76397;BME280;66045;51.622;5.526;2023-02-01T06:00:37;101967.69;;;14.76;49.64
76397;BME280;66045;51.622;5.526;2023-02-01T06:03:03;101959.72;;;14.76;49.48
76397;BME280;66045;51.622;5.526;2023-02-01T06:05:28;101957.06;;;14.75;49.53
76397;BME280;66045;51.622;5.526;2023-02-01T06:07:54;101963.25;;;14.75;49.42
76397;BME280;66045;51.622;5.526;2023-02-01T06:10:19;101964.13;;;14.74;49.51
76397;BME280;66045;51.622;5.526;2023-02-01T06:12:45;101955.31;;;14.74;49.44
76397;BME280;66045;51.622;5.526;2023-02-01T06:15:11;101953.50;;;14.73;49.63
76397;BME280;66045;51.622;5.526;2023-02-01T06:17:37;101945.56;;;14.73;49.67
76397;BME280;66045;51.622;5.526;2023-02-01T06:20:05;101952.63;;;14.72;49.49
76397;BME280;66045;51.622;5.526;2023-02-01T06:22:31;101958.81;;;14.71;49.58
76397;BME280;66045;51.622;5.526;2023-02-01T06:24:57;101956.16;;;14.71;49.69
76397;BME280;66045;51.622;5.526;2023-02-01T06:27:24;101963.25;;;14.71;49.57
76397;BME280;66045;51.622;5.526;2023-02-01T06:29:49;101964.09;;;14.70;49.63
76397;BME280;66045;51.622;5.526;2023-02-01T06:32:14;101965.00;;;14.69;49.53
76397;BME280;66045;51.622;5.526;2023-02-01T06:34:40;101962.34;;;14.70;49.61
76397;BME280;66045;51.622;5.526;2023-02-01T06:37:05;101963.22;;;14.69;49.57
76397;BME280;66045;51.622;5.526;2023-02-01T06:39:31;101972.06;;;14.68;49.66
76397;BME280;66045;51.622;5.526;2023-02-01T06:41:56;101976.47;;;14.68;49.65
76397;BME280;66045;51.622;5.526;2023-02-01T06:44:21;101971.19;;;14.68;49.68
76397;BME280;66045;51.622;5.526;2023-02-01T06:46:47;101980.88;;;14.67;49.54
76397;BME280;66045;51.622;5.526;2023-02-01T06:49:12;101986.16;;;14.67;49.46
76397;BME280;66045;51.622;5.526;2023-02-01T06:51:37;101979.09;;;14.66;49.49
76397;BME280;66045;51.622;5.526;2023-02-01T06:54:03;101978.22;;;14.66;49.62
76397;BME280;66045;51.622;5.526;2023-02-01T06:56:28;101987.94;;;14.67;49.51
76397;BME280;66045;51.622;5.526;2023-02-01T06:58:53;101969.41;;;14.65;49.54
76397;BME280;66045;51.622;5.526;2023-02-01T07:01:19;101977.34;;;14.65;49.59
76397;BME280;66045;51.622;5.526;2023-02-01T07:03:49;101967.59;;;14.64;49.46
76397;BME280;66045;51.622;5.526;2023-02-01T07:06:16;101979.13;;;14.65;49.60
76397;BME280;66045;51.622;5.526;2023-02-01T07:08:42;101969.38;;;14.64;49.49
76397;BME280;66045;51.622;5.526;2023-02-01T07:11:10;101973.78;;;14.63;49.67
76397;BME280;66045;51.622;5.526;2023-02-01T07:13:36;101976.44;;;14.63;49.64
76397;BME280;66045;51.622;5.526;2023-02-01T07:16:03;101974.66;;;14.64;49.62
76397;BME280;66045;51.622;5.526;2023-02-01T07:18:30;101974.66;;;14.64;49.54
76397;BME280;66045;51.622;5.526;2023-02-01T07:20:56;101970.25;;;14.67;49.33
76397;BME280;66045;51.622;5.526;2023-02-01T07:23:22;101977.34;;;14.70;49.30
76397;BME280;66045;51.622;5.526;2023-02-01T07:25:47;101974.72;;;14.74;49.22
76397;BME280;66045;51.622;5.526;2023-02-01T07:28:13;101979.16;;;14.78;49.19
76397;BME280;66045;51.622;5.526;2023-02-01T07:30:39;101974.78;;;14.82;49.44
76397;BME280;66045;51.622;5.526;2023-02-01T07:33:04;101976.56;;;14.89;49.20
76397;BME280;66045;51.622;5.526;2023-02-01T07:35:29;101982.78;;;14.96;49.16
76397;BME280;66045;51.622;5.526;2023-02-01T07:37:57;101993.41;;;14.99;48.92
76397;BME280;66045;51.622;5.526;2023-02-01T07:40:22;101991.66;;;15.04;48.90
76397;BME280;66045;51.622;5.526;2023-02-01T07:42:56;101989.88;;;15.09;48.85
76397;BME280;66045;51.622;5.526;2023-02-01T07:45:22;101984.56;;;15.12;48.90
76397;BME280;66045;51.622;5.526;2023-02-01T07:47:48;101987.25;;;15.17;48.83
76397;BME280;66045;51.622;5.526;2023-02-01T07:50:13;101996.09;;;15.19;48.80
76397;BME280;66045;51.622;5.526;2023-02-01T07:52:39;101985.50;;;15.22;48.67
76397;BME280;66045;51.622;5.526;2023-02-01T07:55:06;101983.75;;;15.27;48.66
76397;BME280;66045;51.622;5.526;2023-02-01T07:57:31;101979.34;;;15.31;48.72
76397;BME280;66045;51.622;5.526;2023-02-01T07:59:57;101980.22;;;15.34;48.63
76397;BME280;66045;51.622;5.526;2023-02-01T08:02:41;101985.53;;;15.39;48.47
76397;BME280;66045;51.622;5.526;2023-02-01T08:05:07;101989.09;;;15.42;48.40
76397;BME280;66045;51.622;5.526;2023-02-01T08:07:32;101982.03;;;15.44;48.57
76397;BME280;66045;51.622;5.526;2023-02-01T08:09:58;101977.59;;;15.47;48.50
76397;BME280;66045;51.622;5.526;2023-02-01T08:12:23;101989.09;;;15.50;48.48
76397;BME280;66045;51.622;5.526;2023-02-01T08:14:48;101989.97;;;15.51;48.45
76397;BME280;66045;51.622;5.526;2023-02-01T08:17:14;102002.38;;;15.53;48.54
76397;BME280;66045;51.622;5.526;2023-02-01T08:19:39;102006.81;;;15.53;48.56
76397;BME280;66045;51.622;5.526;2023-02-01T08:22:04;102007.69;;;15.53;48.59
76397;BME280;66045;51.622;5.526;2023-02-01T08:24:33;102005.03;;;15.55;48.50
76397;BME280;66045;51.622;5.526;2023-02-01T08:27:00;102008.56;;;15.55;48.44
76397;BME280;66045;51.622;5.526;2023-02-01T08:29:26;102000.59;;;15.54;48.45
76397;BME280;66045;51.622;5.526;2023-02-01T08:31:52;101998.81;;;15.54;48.52
76397;BME280;66045;51.622;5.526;2023-02-01T08:34:18;102000.63;;;15.52;48.47
76397;BME280;66045;51.622;5.526;2023-02-01T08:36:43;102004.16;;;15.53;48.50
76397;BME280;66045;51.622;5.526;2023-02-01T08:39:10;102010.34;;;15.52;48.53
76397;BME280;66045;51.622;5.526;2023-02-01T08:41:35;102006.78;;;15.50;48.35
76397;BME280;66045;51.622;5.526;2023-02-01T08:44:01;102008.56;;;15.48;48.43
76397;BME280;66045;51.622;5.526;2023-02-01T08:46:26;102007.66;;;15.45;48.50
76397;BME280;66045;51.622;5.526;2023-02-01T08:48:52;102001.47;;;15.45;48.58
76397;BME280;66045;51.622;5.526;2023-02-01T08:51:18;102002.38;;;15.44;48.56
76397;BME280;66045;51.622;5.526;2023-02-01T08:53:45;101993.53;;;15.40;48.67
76397;BME280;66045;51.622;5.526;2023-02-01T08:56:12;101995.28;;;15.38;48.56
76397;BME280;66045;51.622;5.526;2023-02-01T08:58:38;102005.88;;;15.38;48.74
76397;BME280;66045;51.622;5.526;2023-02-01T09:01:09;101984.66;;;15.35;48.78
76397;BME280;66045;51.622;5.526;2023-02-01T09:03:34;101988.19;;;15.34;48.68
76397;BME280;66045;51.622;5.526;2023-02-01T09:06:08;101982.88;;;15.33;48.85
76397;BME280;66045;51.622;5.526;2023-02-01T09:08:34;101989.94;;;15.31;48.48
76397;BME280;66045;51.622;5.526;2023-02-01T09:11:04;101984.66;;;15.29;48.71
76397;BME280;66045;51.622;5.526;2023-02-01T09:13:30;101980.22;;;15.28;48.59
76397;BME280;66045;51.622;5.526;2023-02-01T09:15:55;101971.34;;;15.26;48.82
76397;BME280;66045;51.622;5.526;2023-02-01T09:18:21;101979.31;;;15.25;48.74
76397;BME280;66045;51.622;5.526;2023-02-01T09:20:46;101962.53;;;15.22;48.89
76397;BME280;66045;51.622;5.526;2023-02-01T09:23:12;101956.34;;;15.22;48.94
76397;BME280;66045;51.622;5.526;2023-02-01T09:25:37;101966.06;;;15.21;49.00
76397;BME280;66045;51.622;5.526;2023-02-01T09:28:04;101962.50;;;15.19;48.90
76397;BME280;66045;51.622;5.526;2023-02-01T09:30:32;101979.31;;;15.20;49.02
76397;BME280;66045;51.622;5.526;2023-02-01T09:32:57;101977.53;;;15.19;49.07
76397;BME280;66045;51.622;5.526;2023-02-01T09:35:23;101974.00;;;15.18;49.17
76397;BME280;66045;51.622;5.526;2023-02-01T09:37:48;101988.13;;;15.17;49.06
76397;BME280;66045;51.622;5.526;2023-02-01T09:40:15;101982.84;;;15.17;49.08
76397;BME280;66045;51.622;5.526;2023-02-01T09:43:09;101973.09;;;15.15;49.09
76397;BME280;66045;51.622;5.526;2023-02-01T09:48:21;101965.16;;;15.13;49.30
76397;BME280;66045;51.622;5.526;2023-02-01T09:50:53;101978.41;;;15.13;49.61
76397;BME280;66045;51.622;5.526;2023-02-01T09:55:47;101966.00;;;15.12;49.42
76397;BME280;66045;51.622;5.526;2023-02-01T09:58:23;101973.09;;;15.12;49.51
76397;BME280;66045;51.622;5.526;2023-02-01T10:00:56;101958.97;;;15.10;49.65
76397;BME280;66045;51.622;5.526;2023-02-01T10:03:28;101973.97;;;15.11;49.66
76397;BME280;66045;51.622;5.526;2023-02-01T10:27:41;101988.09;;;15.05;48.90
76397;BME280;66045;51.622;5.526;2023-02-01T10:32:43;101997.81;;;15.02;48.88
76397;BME280;66045;51.622;5.526;2023-02-01T10:35:22;101988.97;;;15.03;48.88
76397;BME280;66045;51.622;5.526;2023-02-01T10:37:49;101996.03;;;15.00;48.82
76397;BME280;66045;51.622;5.526;2023-02-01T10:40:24;101987.19;;;15.00;48.91
76397;BME280;66045;51.622;5.526;2023-02-01T10:42:57;101982.78;;;14.99;48.78
76397;BME280;66045;51.622;5.526;2023-02-01T10:45:27;101994.25;;;14.98;48.82
76397;BME280;66045;51.622;5.526;2023-02-01T10:47:54;101983.66;;;14.98;48.65
76397;BME280;66045;51.622;5.526;2023-02-01T10:55:38;101965.97;;;14.95;48.79
76397;BME280;66045;51.622;5.526;2023-02-01T10:58:06;101966.88;;;15.00;48.69
76397;BME280;66045;51.622;5.526;2023-02-01T11:00:52;101969.50;;;14.97;48.73
76397;BME280;66045;51.622;5.526;2023-02-01T11:06:09;101965.09;;;14.93;48.60
76397;BME280;66045;51.622;5.526;2023-02-01T11:08:43;101961.56;;;14.93;48.68
76397;BME280;66045;51.622;5.526;2023-02-01T11:11:10;101950.97;;;14.93;48.71
76397;BME280;66045;51.622;5.526;2023-02-01T11:13:38;101956.25;;;14.91;48.82
76397;BME280;66045;51.622;5.526;2023-02-01T11:16:05;101939.47;;;14.91;48.89
76397;BME280;66045;51.622;5.526;2023-02-01T11:18:35;101944.75;;;14.89;48.84
76397;BME280;66045;51.622;5.526;2023-02-01T11:21:01;101948.28;;;14.90;48.90
76397;BME280;66045;51.622;5.526;2023-02-01T11:23:29;101954.47;;;14.89;48.93
76397;BME280;66045;51.622;5.526;2023-02-01T11:25:58;101947.41;;;14.88;48.79
76397;BME280;66045;51.622;5.526;2023-02-01T11:28:32;101951.81;;;14.87;48.82
76397;BME280;66045;51.622;5.526;2023-02-01T11:31:02;101942.09;;;14.88;48.98
76397;BME280;66045;51.622;5.526;2023-02-01T11:33:31;101933.28;;;14.87;48.85
76397;BME280;66045;51.622;5.526;2023-02-01T11:36:05;101939.44;;;14.86;48.83
76397;BME280;66045;51.622;5.526;2023-02-01T11:38:33;101933.25;;;14.86;48.86
76397;BME280;66045;51.622;5.526;2023-02-01T11:41:26;101922.66;;;14.87;48.92
76397;BME280;66045;51.622;5.526;2023-02-01T11:43:57;101926.19;;;14.86;48.88
76397;BME280;66045;51.622;5.526;2023-02-01T11:46:28;101922.63;;;14.84;49.00
76397;BME280;66045;51.622;5.526;2023-02-01T11:48:55;101928.81;;;14.83;49.00
76397;BME280;66045;51.622;5.526;2023-02-01T11:54:27;101927.94;;;14.84;49.35
76397;BME280;66045;51.622;5.526;2023-02-01T12:00:06;101927.06;;;14.84;49.30
76397;BME280;66045;51.622;5.526;2023-02-01T12:13:17;101909.38;;;14.81;49.22
76397;BME280;66045;51.622;5.526;2023-02-01T12:18:54;101917.34;;;14.83;49.29
76397;BME280;66045;51.622;5.526;2023-02-01T12:30:02;101910.25;;;14.78;49.45
76397;BME280;66045;51.622;5.526;2023-02-01T12:32:57;101912.91;;;14.78;49.31
76397;BME280;66045;51.622;5.526;2023-02-01T12:35:44;101922.66;;;14.83;49.17
76397;BME280;66045;51.622;5.526;2023-02-01T12:38:42;101901.41;;;14.78;49.32
76397;BME280;66045;51.622;5.526;2023-02-01T12:46:32;101916.44;;;14.74;49.51
76397;BME280;66045;51.622;5.526;2023-02-01T12:49:00;101906.72;;;14.80;49.16
76397;BME280;66045;51.622;5.526;2023-02-01T12:51:31;101903.19;;;14.74;49.35
76397;BME280;66045;51.622;5.526;2023-02-01T12:54:30;101916.44;;;14.74;49.13
76397;BME280;66045;51.622;5.526;2023-02-01T12:57:00;101907.56;;;14.72;49.30
76397;BME280;66045;51.622;5.526;2023-02-01T13:02:41;101903.16;;;14.73;49.43
76397;BME280;66045;51.622;5.526;2023-02-01T13:05:28;101894.34;;;14.74;49.36
76397;BME280;66045;51.622;5.526;2023-02-01T13:08:00;101877.56;;;14.72;49.24
76397;BME280;66045;51.622;5.526;2023-02-01T13:10:35;101895.22;;;14.71;49.21
76397;BME280;66045;51.622;5.526;2023-02-01T13:13:14;101891.69;;;14.72;49.44
76397;BME280;66045;51.622;5.526;2023-02-01T13:15:47;101897.88;;;14.71;49.22
76397;BME280;66045;51.622;5.526;2023-02-01T13:18:19;101897.00;;;14.71;49.23
76397;BME280;66045;51.622;5.526;2023-02-01T13:20:58;101892.56;;;14.71;49.16
76397;BME280;66045;51.622;5.526;2023-02-01T13:23:33;101904.06;;;14.72;49.21
76397;BME280;66045;51.622;5.526;2023-02-01T13:26:00;101893.44;;;14.72;49.36
76397;BME280;66045;51.622;5.526;2023-02-01T13:28:35;101889.91;;;14.71;49.05
76397;BME280;66045;51.622;5.526;2023-02-01T13:31:44;101880.19;;;14.72;49.11
76397;BME280;66045;51.622;5.526;2023-02-01T13:39:56;101897.88;;;14.71;49.08
76397;BME280;66045;51.622;5.526;2023-02-01T13:42:42;101902.28;;;14.71;49.10
76397;BME280;66045;51.622;5.526;2023-02-01T13:45:15;101894.34;;;14.71;48.95
76397;BME280;66045;51.622;5.526;2023-02-01T13:47:44;101898.75;;;14.70;49.10
76397;BME280;66045;51.622;5.526;2023-02-01T13:53:00;101900.50;;;14.68;49.06
76397;BME280;66045;51.622;5.526;2023-02-01T13:55:54;101907.59;;;14.71;49.15
76397;BME280;66045;51.622;5.526;2023-02-01T13:58:32;101893.44;;;14.69;49.21
76397;BME280;66045;51.622;5.526;2023-02-01T14:03:49;101905.81;;;14.68;49.12
76397;BME280;66045;51.622;5.526;2023-02-01T14:09:31;101904.94;;;14.68;49.05
76397;BME280;66045;51.622;5.526;2023-02-01T14:11:57;101907.59;;;14.68;49.00
76397;BME280;66045;51.622;5.526;2023-02-01T14:19:22;101919.06;;;14.65;49.08
76397;BME280;66045;51.622;5.526;2023-02-01T14:24:25;101912.88;;;14.65;49.21
76397;BME280;66045;51.622;5.526;2023-02-01T14:26:54;101911.94;;;14.61;49.16
76397;BME280;66045;51.622;5.526;2023-02-01T14:29:38;101919.03;;;14.62;49.29
76397;BME280;66045;51.622;5.526;2023-02-01T14:32:11;101928.72;;;14.62;49.00
76397;BME280;66045;51.622;5.526;2023-02-01T14:34:51;101921.69;;;14.62;49.00
76397;BME280;66045;51.622;5.526;2023-02-01T14:42:38;101920.78;;;14.62;49.15
76397;BME280;66045;51.622;5.526;2023-02-01T14:47:45;101920.81;;;14.66;49.00
76397;BME280;66045;51.622;5.526;2023-02-01T14:55:35;101911.94;;;14.58;49.18
76397;BME280;66045;51.622;5.526;2023-02-01T14:58:30;101924.34;;;14.59;49.05
76397;BME280;66045;51.622;5.526;2023-02-01T15:00:55;101927.84;;;14.57;49.12
76397;BME280;66045;51.622;5.526;2023-02-01T15:05:55;101929.59;;;14.54;49.01
76397;BME280;66045;51.622;5.526;2023-02-01T15:08:28;101930.47;;;14.55;49.09
76397;BME280;66045;51.622;5.526;2023-02-01T15:10:58;101925.19;;;14.57;48.96
76397;BME280;66045;51.622;5.526;2023-02-01T15:13:27;101926.06;;;14.55;49.31
76397;BME280;66045;51.622;5.526;2023-02-01T15:16:10;101929.59;;;14.56;48.98
76397;BME280;66045;51.622;5.526;2023-02-01T15:18:35;101921.66;;;14.54;48.95
76397;BME280;66045;51.622;5.526;2023-02-01T15:21:03;101927.84;;;14.57;48.80
76397;BME280;66045;51.622;5.526;2023-02-01T15:23:29;101937.56;;;14.58;48.87
76397;BME280;66045;51.622;5.526;2023-02-01T15:25:55;101927.84;;;14.58;48.80
76397;BME280;66045;51.622;5.526;2023-02-01T15:28:21;101940.22;;;14.61;48.89